createdAt,value
2023-03-31T00:01:01.874Z,15.65
2023-03-31T00:03:29.742Z,15.77
2023-03-31T00:05:58.783Z,15.82
2023-03-31T00:08:35.647Z,15.87
2023-03-31T00:11:07.114Z,15.90
2023-03-31T00:13:35.047Z,15.80
2023-03-31T00:16:05.675Z,15.83
2023-03-31T00:18:34.484Z,15.90
2023-03-31T00:21:25.116Z,15.87
2023-03-31T00:23:58.201Z,15.84
2023-03-31T00:26:26.333Z,15.87
2023-03-31T00:28:54.404Z,15.86
2023-03-31T00:31:22.746Z,15.85
2023-03-31T00:33:50.401Z,15.78
2023-03-31T00:36:30.160Z,15.79
2023-03-31T00:39:08.871Z,15.75
2023-03-31T00:41:39.306Z,15.72
2023-03-31T00:44:19.131Z,15.70
2023-03-31T00:47:03.763Z,15.55
2023-03-31T00:49:38.333Z,15.43
2023-03-31T00:52:15.747Z,15.36
2023-03-31T00:54:45.486Z,15.35
2023-03-31T00:57:15.228Z,15.32
2023-03-31T00:59:48.134Z,15.38
2023-03-31T01:02:16.452Z,15.43
2023-03-31T01:04:50.966Z,15.37
2023-03-31T01:07:27.108Z,15.44
2023-03-31T01:09:59.191Z,15.47
2023-03-31T01:12:27.218Z,15.41
2023-03-31T01:14:55.647Z,15.40
2023-03-31T01:17:24.985Z,15.18
2023-03-31T01:20:30.468Z,14.85
2023-03-31T01:23:32.364Z,15.23
2023-03-31T01:26:21.089Z,15.17
2023-03-31T01:28:54.200Z,15.30
2023-03-31T01:31:32.029Z,15.19
2023-03-31T01:34:08.570Z,15.18
2023-03-31T01:36:58.866Z,15.24
2023-03-31T01:39:45.024Z,15.14
2023-03-31T01:42:17.435Z,15.19
2023-03-31T01:45:03.447Z,15.13
2023-03-31T01:47:40.766Z,15.21
2023-03-31T01:50:20.281Z,15.12
2023-03-31T01:53:09.988Z,14.94
2023-03-31T01:55:46.852Z,15.05
2023-03-31T01:58:28.360Z,15.06
2023-03-31T02:01:03.687Z,15.07
2023-03-31T02:03:45.586Z,14.99
2023-03-31T02:06:17.647Z,14.99
2023-03-31T02:08:49.740Z,14.95
2023-03-31T02:11:17.980Z,15.05
2023-03-31T02:13:46.981Z,15.06
2023-03-31T02:16:19.126Z,15.09
2023-03-31T02:18:48.277Z,15.01
2023-03-31T02:21:16.525Z,15.02
2023-03-31T02:23:44.857Z,14.93
2023-03-31T02:26:17.335Z,15.01
2023-03-31T02:28:45.037Z,14.96
2023-03-31T02:31:22.578Z,14.93
2023-03-31T02:33:50.199Z,14.80
2023-03-31T02:36:18.468Z,14.82
2023-03-31T02:39:08.787Z,14.78
2023-03-31T02:41:36.701Z,14.79
2023-03-31T02:44:04.439Z,14.79
2023-03-31T02:46:32.251Z,14.70
2023-03-31T02:49:02.607Z,14.45
2023-03-31T02:51:39.918Z,14.33
2023-03-31T02:54:35.111Z,14.38
2023-03-31T02:57:14.755Z,14.37
2023-03-31T03:00:09.564Z,14.48
2023-03-31T03:02:48.817Z,14.48
2023-03-31T03:05:38.528Z,14.34
2023-03-31T03:08:26.229Z,14.34
2023-03-31T03:10:56.776Z,14.19
2023-03-31T03:13:33.243Z,14.11
2023-03-31T03:16:27.524Z,14.03
2023-03-31T03:19:08.427Z,14.04
2023-03-31T03:21:36.126Z,13.86
2023-03-31T03:24:03.705Z,13.76
2023-03-31T03:26:35.229Z,13.83
2023-03-31T03:29:02.948Z,13.84
2023-03-31T03:31:30.834Z,13.71
2023-03-31T03:33:58.279Z,13.67
2023-03-31T03:36:26.104Z,13.65
2023-03-31T03:38:53.537Z,13.71
2023-03-31T03:41:20.957Z,13.72
2023-03-31T03:43:48.642Z,13.40
2023-03-31T03:46:16.210Z,13.51
2023-03-31T03:48:43.808Z,13.68
2023-03-31T03:51:11.477Z,13.82
2023-03-31T03:53:38.863Z,13.82
2023-03-31T03:56:06.632Z,13.84
2023-03-31T03:58:34.613Z,13.64
2023-03-31T04:01:02.332Z,13.16
2023-03-31T04:03:31.074Z,13.10
2023-03-31T04:05:58.566Z,13.15
2023-03-31T04:08:25.939Z,13.05
2023-03-31T04:10:53.603Z,13.01
2023-03-31T04:13:21.229Z,12.96
2023-03-31T04:15:48.852Z,12.80
2023-03-31T04:18:23.084Z,12.83
2023-03-31T04:21:06.422Z,12.88
2023-03-31T04:23:38.408Z,13.02
2023-03-31T04:26:09.053Z,12.85
2023-03-31T04:28:37.875Z,12.80
2023-03-31T04:31:08.102Z,12.91
2023-03-31T04:33:38.743Z,13.10
2023-03-31T04:36:17.674Z,13.18
2023-03-31T04:38:46.977Z,13.25
2023-03-31T04:41:14.773Z,12.90
2023-03-31T04:43:42.303Z,13.03
2023-03-31T04:46:10.190Z,13.20
2023-03-31T04:48:38.713Z,13.34
2023-03-31T04:51:06.312Z,13.36
2023-03-31T04:53:33.865Z,13.39
2023-03-31T04:56:01.704Z,13.47
2023-03-31T04:58:29.110Z,13.50
2023-03-31T05:00:56.580Z,13.66
2023-03-31T05:03:24.378Z,13.57
2023-03-31T05:05:51.914Z,13.66
2023-03-31T05:08:19.508Z,13.90
2023-03-31T05:10:47.195Z,13.98
2023-03-31T05:13:14.600Z,14.14
2023-03-31T05:15:41.967Z,14.25
2023-03-31T05:18:09.588Z,14.40
2023-03-31T05:20:37.253Z,14.46
2023-03-31T05:23:04.660Z,14.51
2023-03-31T05:25:33.628Z,14.62
2023-03-31T05:28:01.423Z,14.90
2023-03-31T05:30:29.746Z,15.19
2023-03-31T05:32:57.507Z,15.73
2023-03-31T05:35:24.985Z,15.98
2023-03-31T05:37:52.497Z,16.40
2023-03-31T05:40:20.225Z,16.52
2023-03-31T05:42:47.626Z,16.44
2023-03-31T05:45:15.026Z,16.22
2023-03-31T05:47:42.748Z,16.24
2023-03-31T05:50:11.901Z,16.33
2023-03-31T05:52:40.816Z,16.36
2023-03-31T05:55:08.874Z,16.15
2023-03-31T05:57:36.425Z,16.12
2023-03-31T06:00:06.295Z,16.21
2023-03-31T06:02:34.097Z,16.18
2023-03-31T06:05:01.570Z,16.16
2023-03-31T06:07:29.190Z,16.31
2023-03-31T06:09:56.877Z,16.25
2023-03-31T06:12:24.245Z,16.10
2023-03-31T06:14:51.647Z,16.37
2023-03-31T06:17:19.376Z,16.46
2023-03-31T06:19:46.849Z,16.46
2023-03-31T06:22:14.243Z,16.42
2023-03-31T06:24:41.926Z,16.53
2023-03-31T06:27:09.262Z,16.59
2023-03-31T06:29:36.786Z,16.54
2023-03-31T06:32:05.257Z,16.93
2023-03-31T06:34:32.805Z,17.07
2023-03-31T06:37:00.152Z,17.22
2023-03-31T06:39:28.637Z,17.13
2023-03-31T06:41:56.380Z,17.68
2023-03-31T06:44:25.497Z,17.84
2023-03-31T06:46:53.251Z,17.75
2023-03-31T06:49:20.800Z,17.87
2023-03-31T06:51:48.216Z,17.96
2023-03-31T06:54:16.035Z,17.58
2023-03-31T06:56:43.484Z,17.63
2023-03-31T06:59:11.314Z,17.69
2023-03-31T07:01:39.260Z,17.80
2023-03-31T07:04:06.878Z,17.96
2023-03-31T07:06:34.779Z,17.75
2023-03-31T07:09:02.439Z,17.97
2023-03-31T07:11:29.910Z,17.88
2023-03-31T07:13:57.551Z,18.08
2023-03-31T07:16:25.376Z,18.18
2023-03-31T07:18:54.883Z,18.33
2023-03-31T07:21:22.285Z,18.27
2023-03-31T07:23:49.965Z,18.23
2023-03-31T07:26:17.586Z,18.43
2023-03-31T07:28:44.976Z,18.38
2023-03-31T07:31:13.823Z,18.41
2023-03-31T07:33:41.460Z,18.60
2023-03-31T07:36:13.163Z,18.42
2023-03-31T07:38:43.561Z,18.67
2023-03-31T07:41:12.867Z,18.91
2023-03-31T07:43:40.907Z,19.05
2023-03-31T07:46:18.480Z,18.91
2023-03-31T07:48:47.075Z,18.78
2023-03-31T07:51:16.954Z,18.82
2023-03-31T07:53:44.871Z,17.85
2023-03-31T07:56:12.469Z,17.42
2023-03-31T07:58:40.491Z,17.33
2023-03-31T08:01:08.262Z,16.98
2023-03-31T08:03:36.211Z,17.26
2023-03-31T08:06:03.832Z,18.68
2023-03-31T08:08:31.214Z,19.23
2023-03-31T08:10:58.903Z,18.09
2023-03-31T08:13:26.310Z,19.39
2023-03-31T08:15:53.771Z,20.16
2023-03-31T08:18:21.403Z,19.72
2023-03-31T08:20:50.001Z,19.55
2023-03-31T08:23:17.440Z,19.15
2023-03-31T08:25:45.102Z,18.87
2023-03-31T08:28:14.193Z,18.31
2023-03-31T08:30:41.891Z,18.46
2023-03-31T08:33:12.314Z,18.74
2023-03-31T08:35:39.775Z,17.66
2023-03-31T08:38:07.350Z,18.92
2023-03-31T08:40:35.145Z,19.71
2023-03-31T08:43:02.453Z,19.70
2023-03-31T08:45:35.411Z,19.30
2023-03-31T08:48:28.688Z,19.23
2023-03-31T08:51:01.383Z,19.60
2023-03-31T08:53:31.767Z,19.46
2023-03-31T08:55:59.544Z,19.50
2023-03-31T08:58:43.762Z,19.17
2023-03-31T09:01:54.580Z,19.21
2023-03-31T09:04:32.573Z,18.49
2023-03-31T09:07:24.994Z,18.46
2023-03-31T09:10:09.357Z,19.17
2023-03-31T09:12:58.305Z,18.45
2023-03-31T09:15:34.892Z,18.68
2023-03-31T09:18:11.272Z,18.14
2023-03-31T09:20:41.203Z,18.23
2023-03-31T09:23:31.208Z,18.32
2023-03-31T09:25:59.742Z,18.81
2023-03-31T09:28:34.999Z,19.25
2023-03-31T09:31:12.943Z,18.87
2023-03-31T09:33:43.175Z,18.94
2023-03-31T09:36:18.090Z,18.03
2023-03-31T09:38:46.511Z,18.08
2023-03-31T09:41:16.670Z,18.52
2023-03-31T09:43:46.241Z,19.27
2023-03-31T09:46:14.204Z,19.28
2023-03-31T09:48:42.598Z,18.64
2023-03-31T09:51:18.439Z,18.89
2023-03-31T09:53:50.954Z,19.17
2023-03-31T09:56:46.798Z,19.31
2023-03-31T09:59:18.744Z,19.02
2023-03-31T10:01:48.233Z,18.81
2023-03-31T10:04:21.837Z,18.75
2023-03-31T10:06:49.727Z,19.02
2023-03-31T10:09:17.375Z,18.74
2023-03-31T10:12:05.810Z,19.22
2023-03-31T10:14:41.108Z,19.00
2023-03-31T10:17:14.663Z,18.62
2023-03-31T10:19:53.336Z,18.31
2023-03-31T10:22:20.703Z,18.29
2023-03-31T10:24:50.445Z,18.38
2023-03-31T10:27:24.733Z,18.62
2023-03-31T10:29:53.924Z,17.89
2023-03-31T10:32:29.073Z,17.25
2023-03-31T10:34:57.940Z,17.18
2023-03-31T10:37:27.302Z,17.41
2023-03-31T10:39:59.313Z,17.68
2023-03-31T10:42:27.870Z,18.20
2023-03-31T10:45:36.497Z,17.65
2023-03-31T10:48:17.940Z,17.38
2023-03-31T10:50:45.509Z,17.29
2023-03-31T10:53:14.631Z,17.81
2023-03-31T10:56:16.109Z,18.21
2023-03-31T10:59:06.271Z,18.12
2023-03-31T11:01:52.838Z,17.86
2023-03-31T11:04:26.353Z,18.68
2023-03-31T11:07:08.172Z,18.68
2023-03-31T11:10:00.046Z,18.83
2023-03-31T11:12:32.948Z,19.20
2023-03-31T11:15:10.306Z,19.07
2023-03-31T11:17:52.177Z,18.99
2023-03-31T11:20:49.078Z,18.49
2023-03-31T11:23:42.958Z,18.12
2023-03-31T11:26:16.889Z,18.20
2023-03-31T11:28:59.052Z,18.57
2023-03-31T11:31:49.997Z,18.69
2023-03-31T11:34:33.791Z,19.21
2023-03-31T11:37:17.234Z,19.17
2023-03-31T11:40:08.059Z,19.04
2023-03-31T11:42:56.177Z,18.98
2023-03-31T11:45:30.134Z,18.01
2023-03-31T11:48:04.315Z,18.52
2023-03-31T11:50:38.613Z,18.95
2023-03-31T11:53:30.792Z,19.20
2023-03-31T11:55:59.102Z,19.34
2023-03-31T11:58:38.377Z,19.68
2023-03-31T12:01:20.401Z,19.55
2023-03-31T12:04:13.526Z,18.99
2023-03-31T12:06:42.588Z,19.30
2023-03-31T12:09:32.765Z,19.21
2023-03-31T12:12:06.755Z,19.49
2023-03-31T12:14:40.572Z,19.77
2023-03-31T12:17:14.753Z,20.01
2023-03-31T12:19:48.611Z,20.02
2023-03-31T12:22:35.870Z,19.41
2023-03-31T12:25:03.671Z,20.05
2023-03-31T12:27:40.507Z,19.92
2023-03-31T12:30:26.560Z,20.14
2023-03-31T12:32:56.937Z,19.86
2023-03-31T12:35:38.286Z,18.78
2023-03-31T12:38:08.722Z,18.75
2023-03-31T12:41:08.265Z,18.81
2023-03-31T12:44:04.809Z,19.91
2023-03-31T12:47:11.276Z,19.72
2023-03-31T12:50:11.069Z,19.79
2023-03-31T12:52:47.683Z,19.19
2023-03-31T12:55:29.685Z,19.13
2023-03-31T12:58:22.348Z,19.36
2023-03-31T13:01:19.215Z,19.42
2023-03-31T13:04:10.285Z,19.21
2023-03-31T13:06:37.686Z,18.95
2023-03-31T13:09:11.292Z,18.67
2023-03-31T13:11:47.772Z,18.68
2023-03-31T13:14:28.823Z,18.55
2023-03-31T13:17:13.963Z,18.84
2023-03-31T13:19:41.885Z,18.88
2023-03-31T13:22:28.379Z,18.96
2023-03-31T13:25:45.358Z,19.04
2023-03-31T13:28:17.191Z,19.23
2023-03-31T13:30:46.598Z,19.41
2023-03-31T13:33:22.893Z,19.28
2023-03-31T13:35:57.551Z,18.76
2023-03-31T13:39:12.902Z,19.13
2023-03-31T13:41:49.047Z,18.76
2023-03-31T13:44:44.014Z,18.99
2023-03-31T13:47:35.976Z,18.71
2023-03-31T13:50:23.650Z,18.41
2023-03-31T13:53:25.601Z,18.53
2023-03-31T13:56:09.702Z,18.15
2023-03-31T13:58:53.168Z,18.49
2023-03-31T14:01:39.086Z,18.52
2023-03-31T14:04:42.125Z,18.37
2023-03-31T14:07:14.292Z,18.42
2023-03-31T14:09:49.666Z,18.22
2023-03-31T14:12:37.211Z,18.68
2023-03-31T14:15:06.535Z,18.77
2023-03-31T14:17:36.780Z,18.77
2023-03-31T14:20:27.598Z,19.12
2023-03-31T14:23:36.758Z,19.22
2023-03-31T14:26:09.228Z,19.00
2023-03-31T14:28:37.361Z,18.66
2023-03-31T14:31:38.651Z,18.49
2023-03-31T14:34:15.768Z,18.67
2023-03-31T14:37:03.322Z,18.63
2023-03-31T14:39:33.731Z,18.81
2023-03-31T14:42:05.854Z,18.54
2023-03-31T14:44:34.574Z,18.61
2023-03-31T14:47:02.027Z,18.30
2023-03-31T14:49:35.847Z,18.39
2023-03-31T14:52:15.080Z,18.35
2023-03-31T14:54:46.429Z,18.36
2023-03-31T14:57:18.285Z,18.53
2023-03-31T14:59:48.284Z,18.25
2023-03-31T15:02:30.546Z,18.13
2023-03-31T15:04:58.662Z,18.56
2023-03-31T15:07:27.909Z,17.79
2023-03-31T15:09:55.519Z,17.99
2023-03-31T15:12:23.553Z,18.05
2023-03-31T15:14:54.282Z,18.00
2023-03-31T15:17:28.807Z,17.59
2023-03-31T15:19:58.931Z,17.56
2023-03-31T15:22:28.529Z,17.85
2023-03-31T15:24:56.348Z,17.71
2023-03-31T15:27:41.148Z,17.87
2023-03-31T15:30:15.475Z,17.84
2023-03-31T15:32:43.093Z,17.83
2023-03-31T15:35:22.533Z,17.46
2023-03-31T15:37:52.239Z,17.03
2023-03-31T15:40:24.148Z,17.07
2023-03-31T15:43:20.302Z,17.04
2023-03-31T15:45:57.819Z,16.94
2023-03-31T15:48:34.857Z,16.93
2023-03-31T15:51:12.036Z,16.93
2023-03-31T15:53:53.779Z,16.83
2023-03-31T15:56:45.352Z,17.22
2023-03-31T16:02:15.044Z,17.16
2023-03-31T16:04:42.834Z,17.53
2023-03-31T16:07:22.901Z,17.36
2023-03-31T16:10:03.313Z,17.63
2023-03-31T16:12:43.565Z,16.79
2023-03-31T16:15:18.441Z,16.83
2023-03-31T16:17:49.061Z,16.33
2023-03-31T16:20:27.096Z,16.57
2023-03-31T16:22:58.784Z,16.24
2023-03-31T16:25:30.789Z,15.98
2023-03-31T16:28:00.498Z,16.05
2023-03-31T16:30:40.369Z,16.61
2023-03-31T16:33:17.857Z,16.25
2023-03-31T16:35:56.509Z,16.16
2023-03-31T16:38:26.208Z,16.22
2023-03-31T16:40:56.380Z,16.59
2023-03-31T16:43:28.089Z,16.82
2023-03-31T16:45:57.512Z,16.81
2023-03-31T16:48:27.435Z,16.77
2023-03-31T16:50:57.625Z,16.27
2023-03-31T16:53:31.150Z,16.38
2023-03-31T16:55:58.621Z,16.03
2023-03-31T16:58:28.971Z,15.85
2023-03-31T17:00:57.627Z,16.27
2023-03-31T17:03:25.425Z,15.83
2023-03-31T17:05:58.496Z,15.92
2023-03-31T17:08:27.656Z,15.79
2023-03-31T17:11:03.881Z,15.90
2023-03-31T17:13:33.777Z,15.44
2023-03-31T17:16:16.111Z,15.89
2023-03-31T17:18:46.472Z,15.48
2023-03-31T17:21:16.666Z,15.93
2023-03-31T17:23:44.273Z,15.59
2023-03-31T17:26:12.802Z,15.09
2023-03-31T17:28:41.640Z,15.51
2023-03-31T17:31:13.717Z,15.11
2023-03-31T17:33:41.874Z,15.17
2023-03-31T17:36:10.043Z,15.29
2023-03-31T17:38:39.903Z,15.22
2023-03-31T17:41:10.862Z,15.26
2023-03-31T17:43:39.077Z,15.18
2023-03-31T17:46:11.104Z,15.28
2023-03-31T17:48:40.545Z,15.42
2023-03-31T17:51:10.651Z,15.37
2023-03-31T17:53:39.702Z,15.13
2023-03-31T17:56:07.605Z,15.07
2023-03-31T17:58:35.198Z,15.21
2023-03-31T18:01:07.808Z,14.89
2023-03-31T18:03:36.666Z,15.28
2023-03-31T18:06:06.625Z,15.29
2023-03-31T18:08:35.091Z,15.33
2023-03-31T18:11:05.225Z,15.20
2023-03-31T18:13:34.798Z,15.26
2023-03-31T18:16:03.677Z,14.86
2023-03-31T18:18:31.557Z,14.75
2023-03-31T18:21:04.461Z,14.58
2023-03-31T18:23:32.509Z,14.61
2023-03-31T18:26:00.550Z,15.23
2023-03-31T18:28:28.388Z,15.65
2023-03-31T18:30:56.462Z,16.24
2023-03-31T18:33:23.966Z,16.35
2023-03-31T18:35:53.006Z,16.21
2023-03-31T18:38:20.917Z,16.64
2023-03-31T18:40:49.917Z,16.96
2023-03-31T18:43:22.283Z,17.02
2023-03-31T18:45:51.391Z,17.14
2023-03-31T18:48:19.264Z,17.10
2023-03-31T18:50:46.835Z,16.87
2023-03-31T18:53:15.384Z,16.34
2023-03-31T18:55:44.175Z,16.80
2023-03-31T18:58:12.122Z,16.85
2023-03-31T19:00:40.782Z,16.12
2023-03-31T19:03:09.029Z,15.27
2023-03-31T19:05:37.069Z,15.29
2023-03-31T19:08:05.686Z,15.41
2023-03-31T19:10:33.226Z,14.97
2023-03-31T19:13:00.884Z,14.83
2023-03-31T19:15:29.008Z,15.23
2023-03-31T19:17:57.189Z,14.85
2023-03-31T19:20:24.686Z,14.74
2023-03-31T19:22:52.634Z,14.89
2023-03-31T19:25:20.809Z,14.34
2023-03-31T19:27:48.468Z,14.46
2023-03-31T19:30:21.722Z,14.51
2023-03-31T19:32:49.523Z,14.59
2023-03-31T19:35:18.626Z,14.77
2023-03-31T19:37:46.922Z,14.75
2023-03-31T19:40:14.827Z,14.82
2023-03-31T19:42:44.355Z,14.77
2023-03-31T19:45:12.345Z,15.05
2023-03-31T19:47:40.136Z,14.79
2023-03-31T19:50:08.617Z,14.76
2023-03-31T19:52:36.577Z,15.23
2023-03-31T19:55:04.991Z,14.42
2023-03-31T19:57:33.369Z,13.99
2023-03-31T20:00:02.123Z,14.54
2023-03-31T20:02:32.863Z,14.09
2023-03-31T20:05:01.282Z,14.11
2023-03-31T20:07:29.406Z,14.39
2023-03-31T20:09:57.022Z,14.38
2023-03-31T20:12:24.916Z,14.63
2023-03-31T20:14:52.545Z,13.81
2023-03-31T20:17:20.736Z,14.06
2023-03-31T20:19:48.701Z,14.26
2023-03-31T20:22:16.140Z,13.80
2023-03-31T20:24:43.675Z,14.12
2023-03-31T20:27:11.675Z,13.39
2023-03-31T20:29:39.299Z,13.89
2023-03-31T20:32:07.269Z,13.60
2023-03-31T20:34:35.520Z,13.27
2023-03-31T20:37:03.569Z,13.66
2023-03-31T20:39:31.162Z,13.49
2023-03-31T20:41:58.880Z,13.55
2023-03-31T20:44:26.737Z,13.20
2023-03-31T20:46:55.575Z,13.78
2023-03-31T20:49:23.506Z,13.54
2023-03-31T20:51:50.990Z,13.60
2023-03-31T20:54:18.413Z,13.87
2023-03-31T20:56:46.424Z,13.89
2023-03-31T20:59:15.074Z,13.28
2023-03-31T21:01:42.915Z,13.09
2023-03-31T21:04:11.522Z,13.54
2023-03-31T21:06:41.604Z,13.80
2023-03-31T21:09:09.863Z,13.43
2023-03-31T21:11:39.240Z,14.30
2023-03-31T21:14:06.887Z,14.47
2023-03-31T21:16:34.355Z,14.67
2023-03-31T21:19:02.065Z,14.53
2023-03-31T21:21:29.455Z,14.93
2023-03-31T21:23:57.167Z,14.99
2023-03-31T21:26:25.666Z,14.86
2023-03-31T21:28:56.081Z,15.02
2023-03-31T21:31:24.676Z,15.24
2023-03-31T21:33:53.416Z,15.38
2023-03-31T21:36:22.664Z,15.45
2023-03-31T21:38:52.534Z,15.54
2023-03-31T21:41:26.360Z,15.42
2023-03-31T21:43:54.621Z,15.57
2023-03-31T21:46:27.470Z,15.57
2023-03-31T21:48:55.435Z,15.68
2023-03-31T21:51:23.670Z,15.57
2023-03-31T21:53:55.129Z,15.66
2023-03-31T21:56:24.038Z,15.58
2023-03-31T21:58:51.769Z,15.41
2023-03-31T22:01:19.790Z,15.54
2023-03-31T22:03:48.822Z,15.51
2023-03-31T22:06:16.439Z,15.43
2023-03-31T22:08:44.105Z,15.35
2023-03-31T22:11:12.577Z,15.00
2023-03-31T22:13:41.037Z,15.10
2023-03-31T22:16:16.397Z,15.22
2023-03-31T22:18:45.006Z,14.97
2023-03-31T22:21:26.341Z,15.25
2023-03-31T22:23:56.548Z,15.03
2023-03-31T22:26:24.729Z,14.97
2023-03-31T22:28:52.143Z,15.23
2023-03-31T22:31:19.895Z,15.27
2023-03-31T22:33:47.934Z,15.16
2023-03-31T22:36:15.786Z,14.97
2023-03-31T22:38:43.603Z,15.23
2023-03-31T22:41:11.153Z,15.49
2023-03-31T22:43:39.844Z,15.42
2023-03-31T22:46:08.042Z,15.50
2023-03-31T22:48:35.601Z,15.55
2023-03-31T22:51:06.212Z,15.41
2023-03-31T22:53:34.276Z,15.61
2023-03-31T22:56:06.316Z,15.34
2023-03-31T22:58:34.302Z,15.51
2023-03-31T23:01:02.174Z,15.63
2023-03-31T23:03:29.919Z,15.68
2023-03-31T23:05:57.701Z,15.66
2023-03-31T23:08:25.112Z,15.71
2023-03-31T23:10:57.656Z,15.69
2023-03-31T23:13:26.680Z,15.61
2023-03-31T23:15:54.478Z,15.69
2023-03-31T23:18:22.618Z,15.49
2023-03-31T23:20:50.550Z,15.51
2023-03-31T23:23:18.181Z,15.51
2023-03-31T23:25:45.882Z,15.66
2023-03-31T23:28:13.590Z,15.49
2023-03-31T23:30:41.270Z,15.21
2023-03-31T23:33:09.062Z,15.07
2023-03-31T23:35:36.788Z,15.02
2023-03-31T23:38:04.342Z,15.17
2023-03-31T23:40:31.857Z,14.90
2023-03-31T23:42:59.539Z,14.58
2023-03-31T23:45:27.217Z,14.48
2023-03-31T23:47:54.688Z,14.47
2023-03-31T23:50:22.512Z,14.26
2023-03-31T23:52:49.942Z,14.36
2023-03-31T23:55:17.927Z,14.41
2023-03-31T23:57:45.699Z,14.29
